Lake Geneva, Florida
Current Conditions -  °F | °C
As of 5:53 PM on Saturday 25 Oct 2014 (Local Time) from KGNV Reporting Station
Clear Clear  
Wind Chill: 75°   Ceiling: Unl
Heat Index: 75°   Visibility: 10mi
Dew Point: 48°   Wind: 5mph
Humidity: 38%   Direction: 350°N
Pressure: 29.96"   Gusts: NA
Location:  29.77°N, 82.01°W
Report Text: KGNV 252153Z 35004KT 10SM CLR 24/09 A2996 RMK AO2 SLP145 T02390089
Loading
Personal Weather Stations






























Interactive Weather Map
Tropical Storm Tracking
New forecast layout! Learn more

10-Day Weather Forecast

Advertisements
Track Severe Weather on mobile